Time;durP1;ratioP1;P1;durP2;ratioP2;P2;SDS_P1;SDS_P2;PMS_P1;PMS_P2;Temp;Humidity;BMP_temperature;BMP_pressure;BME280_temperature;BME280_humidity;BME280_pressure;Samples;Min_cycle;Max_cycle;Signal;HPM_P1;HPM_P2
2022/06/04 00:00:08;;;;;;;4.22;3.15;;;;;;;;;;4205020;34;20105;-62
2022/06/04 00:02:38;;;;;;;3.90;2.72;;;;;;;;;;4204886;34;20133;-61
2022/06/04 00:31:36;;;;;;;3.70;2.70;;;;;;;;;;4906201;28;20060;-59
2022/06/04 00:34:04;;;;;;;4.62;3.10;;;;;;;;;;4199871;34;20109;-63
2022/06/04 00:36:31;;;;;;;5.47;3.25;;;;;;;;;;4198564;34;20490;-62
2022/06/04 00:38:58;;;;;;;4.97;3.03;;;;;;;;;;4194454;34;20106;-64
2022/06/04 00:41:44;;;;;;;5.87;3.25;;;;;;;;;;4190807;34;20205;-63
2022/06/04 00:44:10;;;;;;;4.10;3.15;;;;;;;;;;4164440;34;20098;-64
2022/06/04 00:46:41;;;;;;;6.32;2.92;;;;;;;;;;4176188;34;20599;-64
2022/06/04 00:49:13;;;;;;;4.00;3.17;;;;;;;;;;4176885;34;20122;-63
2022/06/04 00:51:41;;;;;;;4.72;3.05;;;;;;;;;;4195424;34;20148;-63
2022/06/04 00:54:07;;;;;;;12.75;3.33;;;;;;;;;;4191304;34;20114;-63
2022/06/04 00:56:33;;;;;;;4.70;3.28;;;;;;;;;;4204433;34;20614;-64
2022/06/04 00:59:20;;;;;;;4.03;2.72;;;;;;;;;;4204457;34;20116;-63
2022/06/04 01:02:13;;;;;;;6.37;3.37;;;;;;;;;;4204446;34;20114;-62
2022/06/04 01:04:49;;;;;;;3.12;2.80;;;;;;;;;;4196472;34;20106;-63
2022/06/04 01:07:23;;;;;;;4.28;3.65;;;;;;;;;;4203336;34;20510;-62
2022/06/04 01:09:56;;;;;;;6.32;3.17;;;;;;;;;;4190355;34;20113;-63
2022/06/04 01:12:43;;;;;;;5.00;3.37;;;;;;;;;;4177631;34;20101;-63
2022/06/04 01:15:19;;;;;;;4.72;3.33;;;;;;;;;;4177639;34;20225;-62
2022/06/04 01:18:03;;;;;;;7.05;3.25;;;;;;;;;;4177675;34;20663;-63
2022/06/04 01:20:50;;;;;;;5.25;2.67;;;;;;;;;;4177504;34;20132;-60
2022/06/04 01:23:39;;;;;;;6.30;3.03;;;;;;;;;;4190317;34;20133;-60
2022/06/04 01:26:23;;;;;;;4.90;3.65;;;;;;;;;;4190080;34;20233;-61
2022/06/04 01:28:59;;;;;;;5.55;2.80;;;;;;;;;;4190075;34;20090;-60
2022/06/04 01:31:40;;;;;;;6.05;3.30;;;;;;;;;;4177528;34;20800;-60
2022/06/04 01:34:09;;;;;;;4.93;3.10;;;;;;;;;;4189925;34;20121;-60
2022/06/04 01:36:50;;;;;;;5.87;3.12;;;;;;;;;;4177145;34;20101;-60
2022/06/04 01:39:21;;;;;;;3.35;2.20;;;;;;;;;;4177099;34;20112;-60
2022/06/04 01:41:54;;;;;;;4.22;2.60;;;;;;;;;;4190303;34;20202;-60
2022/06/04 01:44:35;;;;;;;6.57;2.70;;;;;;;;;;4177173;34;20110;-60
2022/06/04 01:47:04;;;;;;;3.97;2.97;;;;;;;;;;4177306;34;20604;-61
2022/06/04 01:49:42;;;;;;;4.03;2.80;;;;;;;;;;4189802;34;20557;-61
2022/06/04 01:52:30;;;;;;;5.00;3.30;;;;;;;;;;4189861;34;20105;-61
2022/06/04 01:55:05;;;;;;;4.60;2.83;;;;;;;;;;4154394;34;20117;-61
2022/06/04 01:57:57;;;;;;;7.53;3.58;;;;;;;;;;4190447;34;20548;-61
2022/06/04 02:00:29;;;;;;;7.12;3.03;;;;;;;;;;4176295;34;20124;-62
2022/06/04 02:03:04;;;;;;;5.82;2.97;;;;;;;;;;4179315;34;20186;-61
2022/06/04 02:05:55;;;;;;;4.15;2.92;;;;;;;;;;4179207;34;20099;-61
2022/06/04 02:08:28;;;;;;;5.80;2.95;;;;;;;;;;4186473;34;20201;-61
2022/06/04 02:11:16;;;;;;;4.50;2.67;;;;;;;;;;4192103;34;20090;-61
2022/06/04 02:13:43;;;;;;;5.35;2.75;;;;;;;;;;4205583;34;20116;-62
2022/06/04 02:16:32;;;;;;;5.15;3.25;;;;;;;;;;4193120;34;20102;-61
2022/06/04 02:18:59;;;;;;;2.92;2.62;;;;;;;;;;4203064;34;20125;-61
2022/06/04 02:21:27;;;;;;;8.10;3.15;;;;;;;;;;4205831;34;20200;-60
2022/06/04 02:23:54;;;;;;;3.92;2.83;;;;;;;;;;4192742;34;20540;-60
2022/06/04 02:26:20;;;;;;;4.75;2.80;;;;;;;;;;4192568;34;20377;-60
2022/06/04 02:28:46;;;;;;;9.05;4.28;;;;;;;;;;4205478;34;20125;-60
2022/06/04 02:31:24;;;;;;;3.42;3.00;;;;;;;;;;4192754;34;20186;-60
2022/06/04 02:34:05;;;;;;;4.18;3.10;;;;;;;;;;4192712;34;20217;-61
2022/06/04 02:36:55;;;;;;;4.40;3.40;;;;;;;;;;4199759;34;20128;-61
2022/06/04 02:39:36;;;;;;;9.63;3.33;;;;;;;;;;4191522;34;20128;-62
2022/06/04 02:42:12;;;;;;;6.65;3.20;;;;;;;;;;4191657;34;20121;-62
2022/06/04 02:45:01;;;;;;;10.30;3.70;;;;;;;;;;4178797;34;20118;-60
2022/06/04 02:47:49;;;;;;;4.03;2.90;;;;;;;;;;4191685;34;20209;-61
2022/06/04 02:50:42;;;;;;;2.50;2.30;;;;;;;;;;4191017;34;20110;-61
2022/06/04 02:53:09;;;;;;;3.37;2.85;;;;;;;;;;4191675;34;20438;-62
2022/06/04 02:55:39;;;;;;;4.87;3.45;;;;;;;;;;4178752;34;20184;-60
2022/06/04 02:58:09;;;;;;;5.55;3.40;;;;;;;;;;4167527;34;20182;-60
2022/06/04 03:00:35;;;;;;;8.43;3.28;;;;;;;;;;4178885;34;20593;-61
2022/06/04 03:03:01;;;;;;;7.37;3.60;;;;;;;;;;4191618;34;20189;-61
2022/06/04 03:05:28;;;;;;;6.07;3.03;;;;;;;;;;4191615;34;20198;-61
2022/06/04 03:07:58;;;;;;;5.32;3.03;;;;;;;;;;4191647;34;20117;-61
2022/06/04 03:10:33;;;;;;;6.97;3.50;;;;;;;;;;4178126;34;20209;-60
2022/06/04 03:12:58;;;;;;;8.50;3.58;;;;;;;;;;4178557;34;20128;-61
2022/06/04 03:15:26;;;;;;;5.03;3.67;;;;;;;;;;4191330;34;20098;-61
2022/06/04 03:17:52;;;;;;;6.28;3.53;;;;;;;;;;4191285;34;20110;-61
2022/06/04 03:20:22;;;;;;;5.22;3.30;;;;;;;;;;4191444;34;20097;-61
2022/06/04 03:22:49;;;;;;;18.80;3.87;;;;;;;;;;4191447;34;20534;-60
2022/06/04 03:25:15;;;;;;;6.07;3.28;;;;;;;;;;4191193;34;20102;-61
2022/06/04 03:27:41;;;;;;;9.02;3.53;;;;;;;;;;4191680;34;20201;-61
2022/06/04 03:30:08;;;;;;;9.65;3.10;;;;;;;;;;4191237;34;20929;-62
2022/06/04 03:32:34;;;;;;;3.75;3.03;;;;;;;;;;4191096;34;20122;-61
2022/06/04 03:35:00;;;;;;;7.22;3.25;;;;;;;;;;4191177;34;20533;-61
2022/06/04 03:37:26;;;;;;;5.07;3.45;;;;;;;;;;4190974;34;20609;-61
2022/06/04 03:39:52;;;;;;;5.82;3.83;;;;;;;;;;4191103;34;20125;-62
2022/06/04 03:42:18;;;;;;;5.95;3.60;;;;;;;;;;4191225;34;20117;-61
2022/06/04 03:44:47;;;;;;;10.55;3.83;;;;;;;;;;4191429;34;20129;-61
2022/06/04 03:47:16;;;;;;;8.95;3.50;;;;;;;;;;4190985;34;20105;-61
2022/06/04 03:49:43;;;;;;;10.00;4.15;;;;;;;;;;4191109;34;20556;-62
2022/06/04 03:52:11;;;;;;;8.40;3.55;;;;;;;;;;4190997;34;20116;-62
2022/06/04 03:54:52;;;;;;;9.68;3.35;;;;;;;;;;4191114;34;20202;-62
2022/06/04 03:57:37;;;;;;;7.50;4.10;;;;;;;;;;4191023;34;20113;-62
2022/06/04 04:00:29;;;;;;;5.00;3.45;;;;;;;;;;4190886;34;20114;-61
2022/06/04 04:03:01;;;;;;;5.30;3.87;;;;;;;;;;4178548;34;20206;-62
2022/06/04 04:05:31;;;;;;;6.10;3.70;;;;;;;;;;4190924;34;20300;-62
2022/06/04 04:07:57;;;;;;;4.78;3.58;;;;;;;;;;4190838;34;20172;-60
2022/06/04 04:10:25;;;;;;;12.55;3.72;;;;;;;;;;4155278;34;20202;-60
2022/06/04 04:12:51;;;;;;;9.18;4.30;;;;;;;;;;4191170;34;20201;-62
2022/06/04 04:15:18;;;;;;;6.45;3.58;;;;;;;;;;4190884;34;20917;-62
2022/06/04 04:17:44;;;;;;;9.23;3.67;;;;;;;;;;4190772;34;20121;-64
2022/06/04 04:20:14;;;;;;;5.10;3.58;;;;;;;;;;4177875;34;20102;-61
2022/06/04 04:22:41;;;;;;;8.32;3.67;;;;;;;;;;4190286;34;20128;-64
2022/06/04 04:25:08;;;;;;;4.82;3.75;;;;;;;;;;4177994;34;20121;-67
2022/06/04 04:27:35;;;;;;;6.22;3.75;;;;;;;;;;4191042;34;20117;-61
2022/06/04 04:30:01;;;;;;;6.10;4.15;;;;;;;;;;4190761;34;20129;-61
2022/06/04 04:32:27;;;;;;;8.20;4.07;;;;;;;;;;4190634;34;20745;-61
2022/06/04 04:34:53;;;;;;;6.05;4.57;;;;;;;;;;4190666;34;20102;-61
2022/06/04 04:37:19;;;;;;;4.00;2.75;;;;;;;;;;4190489;34;20137;-62
2022/06/04 04:39:45;;;;;;;5.28;3.97;;;;;;;;;;4190881;34;20196;-62
2022/06/04 04:42:11;;;;;;;8.13;4.22;;;;;;;;;;4190748;34;20212;-60
2022/06/04 04:44:37;;;;;;;5.40;4.12;;;;;;;;;;4190607;34;20141;-60
2022/06/04 04:47:03;;;;;;;12.27;5.57;;;;;;;;;;4177655;34;20122;-61
2022/06/04 04:49:29;;;;;;;5.87;3.80;;;;;;;;;;4190525;34;20183;-61
2022/06/04 04:51:55;;;;;;;8.40;4.20;;;;;;;;;;4190494;34;20222;-61
2022/06/04 04:54:21;;;;;;;7.78;4.43;;;;;;;;;;4190442;34;20122;-61
2022/06/04 04:56:47;;;;;;;7.30;4.10;;;;;;;;;;4190381;34;20535;-60
2022/06/04 04:59:13;;;;;;;10.02;4.47;;;;;;;;;;4190442;34;20102;-62
2022/06/04 05:01:39;;;;;;;8.38;4.53;;;;;;;;;;4177793;34;20102;-62
2022/06/04 05:04:05;;;;;;;15.95;5.05;;;;;;;;;;4190634;34;20470;-62
2022/06/04 05:06:31;;;;;;;14.18;5.18;;;;;;;;;;4190314;34;20478;-63
2022/06/04 05:08:57;;;;;;;8.48;4.05;;;;;;;;;;4190329;34;20509;-63
2022/06/04 05:11:28;;;;;;;17.92;4.87;;;;;;;;;;4190103;34;20102;-63
2022/06/04 05:13:58;;;;;;;11.07;4.55;;;;;;;;;;4166517;34;20125;-63
2022/06/04 05:16:29;;;;;;;7.93;4.30;;;;;;;;;;4190079;34;20113;-63
2022/06/04 05:18:55;;;;;;;13.43;4.82;;;;;;;;;;4177361;34;20109;-63
2022/06/04 05:21:25;;;;;;;6.05;3.85;;;;;;;;;;4177239;34;20202;-64
2022/06/04 05:23:54;;;;;;;10.57;4.78;;;;;;;;;;4177160;34;20122;-63
2022/06/04 05:26:20;;;;;;;8.73;3.78;;;;;;;;;;4189988;34;20109;-64
2022/06/04 05:28:47;;;;;;;7.80;4.90;;;;;;;;;;4177459;34;20117;-63
2022/06/04 05:31:13;;;;;;;9.63;5.07;;;;;;;;;;4189931;34;20440;-64
2022/06/04 05:33:39;;;;;;;11.38;4.40;;;;;;;;;;4191436;34;20105;-64
2022/06/04 05:36:05;;;;;;;11.02;4.43;;;;;;;;;;4167902;34;20189;-65
2022/06/04 05:38:34;;;;;;;9.88;5.30;;;;;;;;;;4179436;34;20224;-66
2022/06/04 05:41:13;;;;;;;13.00;4.53;;;;;;;;;;4192129;34;20114;-66
2022/06/04 05:43:39;;;;;;;6.65;4.32;;;;;;;;;;4179857;34;20446;-66
2022/06/04 05:46:08;;;;;;;6.80;4.50;;;;;;;;;;4192055;34;20132;-64
2022/06/04 05:48:37;;;;;;;9.73;4.37;;;;;;;;;;4191973;34;20132;-65
2022/06/04 05:51:04;;;;;;;6.32;4.30;;;;;;;;;;4156937;34;20448;-60
2022/06/04 05:53:29;;;;;;;8.35;4.95;;;;;;;;;;4191968;34;20105;-60
2022/06/04 05:55:55;;;;;;;8.95;4.82;;;;;;;;;;4192161;34;20110;-60
2022/06/04 05:58:22;;;;;;;7.68;4.32;;;;;;;;;;4192386;34;20117;-62
2022/06/04 06:00:48;;;;;;;6.95;4.80;;;;;;;;;;4192150;34;20167;-61
2022/06/04 06:03:14;;;;;;;6.43;4.53;;;;;;;;;;4192251;34;20255;-62
2022/06/04 06:05:42;;;;;;;6.70;4.07;;;;;;;;;;4191892;34;20211;-65
2022/06/04 06:08:08;;;;;;;9.13;4.28;;;;;;;;;;4191755;34;20544;-64
2022/06/04 06:10:41;;;;;;;9.10;4.47;;;;;;;;;;4191751;34;20462;-64
2022/06/04 06:13:07;;;;;;;5.55;4.32;;;;;;;;;;4179508;34;20122;-64
2022/06/04 06:15:33;;;;;;;6.35;4.30;;;;;;;;;;4179296;34;20117;-64
2022/06/04 06:17:59;;;;;;;8.13;4.72;;;;;;;;;;4191922;34;20132;-64
2022/06/04 06:20:25;;;;;;;7.47;4.53;;;;;;;;;;4192032;34;20147;-63
2022/06/04 06:22:51;;;;;;;9.20;4.45;;;;;;;;;;4191964;34;20152;-65
2022/06/04 06:25:17;;;;;;;6.03;4.32;;;;;;;;;;4191652;34;20169;-65
2022/06/04 06:27:43;;;;;;;7.32;4.45;;;;;;;;;;4191681;34;20118;-63
2022/06/04 06:30:10;;;;;;;8.25;4.57;;;;;;;;;;4191946;34;20193;-65
2022/06/04 06:32:36;;;;;;;8.75;5.00;;;;;;;;;;4191517;34;20106;-65
2022/06/04 06:35:03;;;;;;;11.32;5.00;;;;;;;;;;4178900;34;20225;-64
2022/06/04 06:37:29;;;;;;;5.50;4.65;;;;;;;;;;4191687;34;20522;-66
2022/06/04 06:39:56;;;;;;;7.60;5.25;;;;;;;;;;4178825;34;20133;-66
2022/06/04 06:42:22;;;;;;;6.32;4.85;;;;;;;;;;4191746;34;20118;-66
2022/06/04 06:44:48;;;;;;;10.20;5.10;;;;;;;;;;4190866;34;20122;-63
2022/06/04 06:47:14;;;;;;;7.78;4.60;;;;;;;;;;4178890;34;20128;-66
2022/06/04 06:49:41;;;;;;;8.73;4.12;;;;;;;;;;4179565;34;20133;-64
2022/06/04 06:52:08;;;;;;;5.03;4.10;;;;;;;;;;4190767;34;20128;-66
2022/06/04 06:54:36;;;;;;;7.20;4.35;;;;;;;;;;4181287;34;20129;-65
2022/06/04 06:57:04;;;;;;;6.80;4.10;;;;;;;;;;4201201;34;20219;-66
2022/06/04 06:59:30;;;;;;;6.45;4.55;;;;;;;;;;4189417;34;20577;-66
2022/06/04 07:01:57;;;;;;;11.23;5.07;;;;;;;;;;4180109;34;20137;-66
2022/06/04 07:04:23;;;;;;;7.00;4.60;;;;;;;;;;4203459;34;20121;-64
2022/06/04 07:06:52;;;;;;;6.90;3.80;;;;;;;;;;4203877;34;20121;-64
2022/06/04 07:09:23;;;;;;;5.80;3.60;;;;;;;;;;4205056;34;20117;-64
2022/06/04 07:11:49;;;;;;;7.78;3.90;;;;;;;;;;4181260;34;20114;-66
2022/06/04 07:14:16;;;;;;;8.35;3.80;;;;;;;;;;4178642;34;20436;-63
2022/06/04 07:16:43;;;;;;;5.28;3.40;;;;;;;;;;4191332;34;20770;-63
2022/06/04 07:19:10;;;;;;;7.25;4.28;;;;;;;;;;4191066;34;20116;-63
2022/06/04 07:21:36;;;;;;;10.75;4.18;;;;;;;;;;4191284;34;20924;-64
2022/06/04 07:24:03;;;;;;;6.03;4.03;;;;;;;;;;4178385;34;20214;-63
2022/06/04 07:26:29;;;;;;;5.22;4.12;;;;;;;;;;4191119;34;20132;-65
2022/06/04 07:28:55;;;;;;;7.70;4.47;;;;;;;;;;4202099;34;20102;-64
2022/06/04 07:31:21;;;;;;;16.08;4.95;;;;;;;;;;4205196;34;20121;-63
2022/06/04 07:33:49;;;;;;;6.50;4.80;;;;;;;;;;4204919;34;20113;-65
2022/06/04 07:36:17;;;;;;;8.75;4.62;;;;;;;;;;4205088;34;20097;-65
2022/06/04 07:38:44;;;;;;;6.75;4.57;;;;;;;;;;4191814;34;20132;-65
2022/06/04 07:41:21;;;;;;;8.38;5.47;;;;;;;;;;4205032;34;20214;-64
2022/06/04 07:43:48;;;;;;;9.65;5.10;;;;;;;;;;4204904;34;20109;-64
2022/06/04 07:46:14;;;;;;;6.20;4.35;;;;;;;;;;4205074;34;20169;-65
2022/06/04 07:48:41;;;;;;;13.85;4.78;;;;;;;;;;4204802;34;20118;-64
2022/06/04 07:51:07;;;;;;;8.23;4.32;;;;;;;;;;4205134;34;20118;-64
2022/06/04 07:53:33;;;;;;;7.62;4.20;;;;;;;;;;4204752;34;20466;-65
2022/06/04 07:56:04;;;;;;;4.32;3.58;;;;;;;;;;4181471;34;20129;-65
2022/06/04 07:58:30;;;;;;;8.02;3.50;;;;;;;;;;4178102;34;20586;-63
2022/06/04 08:00:57;;;;;;;5.20;3.53;;;;;;;;;;4191234;34;20215;-62
2022/06/04 08:03:23;;;;;;;6.60;3.20;;;;;;;;;;4190863;34;20140;-61
2022/06/04 08:05:52;;;;;;;7.85;4.07;;;;;;;;;;4191023;34;20114;-60
2022/06/04 08:08:19;;;;;;;5.43;3.78;;;;;;;;;;4190888;34;20116;-61
2022/06/04 08:10:46;;;;;;;6.62;4.47;;;;;;;;;;4191038;34;20605;-60
2022/06/04 08:13:25;;;;;;;6.47;4.22;;;;;;;;;;4190972;34;20137;-62
2022/06/04 08:15:57;;;;;;;6.05;4.45;;;;;;;;;;4190946;34;20097;-62
2022/06/04 08:18:24;;;;;;;6.07;4.78;;;;;;;;;;4190722;34;20263;-63
2022/06/04 08:20:50;;;;;;;5.55;4.47;;;;;;;;;;4178156;34;20120;-63
2022/06/04 08:23:16;;;;;;;5.95;3.70;;;;;;;;;;4190761;34;20132;-64
2022/06/04 08:25:46;;;;;;;7.37;4.05;;;;;;;;;;4190908;34;20114;-61
2022/06/04 08:28:14;;;;;;;6.55;3.53;;;;;;;;;;4177772;34;20133;-62
2022/06/04 08:30:41;;;;;;;6.07;4.28;;;;;;;;;;4204293;34;20494;-60
2022/06/04 08:33:07;;;;;;;8.25;3.97;;;;;;;;;;4204281;34;20278;-60
2022/06/04 08:35:34;;;;;;;4.47;2.90;;;;;;;;;;4204407;34;20473;-62
2022/06/04 08:37:59;;;;;;;8.77;3.90;;;;;;;;;;4204599;34;20142;-61
2022/06/04 08:40:31;;;;;;;6.72;4.05;;;;;;;;;;4204462;34;20675;-62
2022/06/04 08:43:24;;;;;;;7.22;3.35;;;;;;;;;;4191934;34;20101;-62
2022/06/04 08:45:51;;;;;;;4.45;3.15;;;;;;;;;;4204323;34;20193;-62
2022/06/04 08:48:20;;;;;;;2.92;2.25;;;;;;;;;;4191375;34;20122;-62
2022/06/04 08:50:47;;;;;;;4.10;3.05;;;;;;;;;;4191698;34;20187;-62
2022/06/04 08:53:24;;;;;;;3.58;2.33;;;;;;;;;;4204277;34;20122;-62
2022/06/04 08:59:20;;;;;;;6.50;2.78;;;;;;;;;;4167829;34;20106;-62
2022/06/04 09:01:53;;;;;;;6.85;3.90;;;;;;;;;;4184560;34;20156;-61
2022/06/04 09:04:42;;;;;;;4.10;2.80;;;;;;;;;;4177787;34;20526;-63
2022/06/04 09:07:10;;;;;;;6.62;3.53;;;;;;;;;;4189752;34;20113;-62
2022/06/04 09:10:00;;;;;;;5.50;3.42;;;;;;;;;;4190375;34;20215;-62
2022/06/04 09:12:34;;;;;;;4.07;3.50;;;;;;;;;;4190548;34;20128;-61
2022/06/04 09:15:02;;;;;;;3.33;2.95;;;;;;;;;;4177411;34;20116;-63
2022/06/04 09:17:37;;;;;;;4.25;3.33;;;;;;;;;;4190148;34;20118;-61
2022/06/04 09:20:17;;;;;;;3.62;2.83;;;;;;;;;;4190446;34;20083;-63
2022/06/04 09:22:45;;;;;;;5.85;3.40;;;;;;;;;;4177509;34;20118;-62
2022/06/04 09:25:15;;;;;;;7.65;3.90;;;;;;;;;;4190168;34;20129;-63
2022/06/04 09:27:55;;;;;;;9.15;4.18;;;;;;;;;;4177473;34;20105;-62
2022/06/04 09:30:27;;;;;;;4.55;3.35;;;;;;;;;;4190052;34;20189;-62
2022/06/04 09:32:59;;;;;;;4.28;3.87;;;;;;;;;;4190141;34;20478;-61
2022/06/04 09:35:28;;;;;;;4.40;3.75;;;;;;;;;;4190227;34;20110;-61
2022/06/04 09:37:54;;;;;;;5.65;4.37;;;;;;;;;;4189996;34;20557;-60
2022/06/04 09:40:25;;;;;;;6.37;4.15;;;;;;;;;;4189976;34;20125;-62
2022/06/04 09:42:52;;;;;;;9.43;3.25;;;;;;;;;;4190287;34;20201;-64
2022/06/04 09:45:26;;;;;;;5.37;3.83;;;;;;;;;;4177394;34;20166;-60
2022/06/04 09:47:55;;;;;;;7.30;3.80;;;;;;;;;;4177036;34;20560;-61
2022/06/04 09:50:21;;;;;;;4.03;3.60;;;;;;;;;;4189883;34;20517;-62
2022/06/04 09:53:16;;;;;;;4.75;3.10;;;;;;;;;;4189869;34;20105;-61
2022/06/04 09:56:05;;;;;;;5.85;3.67;;;;;;;;;;4177078;34;20083;-62
2022/06/04 09:58:33;;;;;;;4.25;3.60;;;;;;;;;;4183773;34;20526;-61
2022/06/04 10:01:03;;;;;;;4.07;2.72;;;;;;;;;;4189850;34;20147;-62
2022/06/04 10:03:31;;;;;;;3.92;3.33;;;;;;;;;;4189656;34;20134;-62
2022/06/04 10:06:02;;;;;;;10.13;5.00;;;;;;;;;;4177004;34;20454;-64
2022/06/04 10:08:29;;;;;;;6.57;3.78;;;;;;;;;;4189756;34;20129;-63
2022/06/04 10:11:02;;;;;;;7.30;3.80;;;;;;;;;;4189694;34;20105;-63
2022/06/04 10:13:48;;;;;;;4.82;3.50;;;;;;;;;;4189477;34;20132;-63
2022/06/04 10:16:17;;;;;;;5.12;2.62;;;;;;;;;;4178727;34;20114;-63
2022/06/04 10:19:00;;;;;;;3.25;2.95;;;;;;;;;;4189418;34;20610;-63
2022/06/04 10:21:31;;;;;;;3.33;3.03;;;;;;;;;;4178837;34;20217;-63
2022/06/04 10:23:59;;;;;;;3.55;2.92;;;;;;;;;;4191803;34;20463;-63
2022/06/04 10:27:03;;;;;;;2.83;2.53;;;;;;;;;;4191959;34;20216;-61
2022/06/04 10:29:57;;;;;;;5.03;3.35;;;;;;;;;;4191953;34;20130;-64
2022/06/04 10:32:29;;;;;;;4.05;3.17;;;;;;;;;;4191739;34;20105;-61
2022/06/04 10:35:08;;;;;;;6.65;3.10;;;;;;;;;;4191680;34;20110;-64
2022/06/04 10:37:39;;;;;;;4.57;3.12;;;;;;;;;;4191642;34;20097;-65
2022/06/04 10:40:24;;;;;;;5.15;3.28;;;;;;;;;;4191620;34;20626;-63
2022/06/04 10:43:14;;;;;;;7.72;6.90;;;;;;;;;;4191690;34;20194;-62
2022/06/04 10:45:42;;;;;;;19.10;13.65;;;;;;;;;;4178930;34;20217;-62
2022/06/04 10:48:24;;;;;;;9.02;7.03;;;;;;;;;;4191600;34;20124;-62
2022/06/04 10:53:54;;;;;;;15.43;8.68;;;;;;;;;;4191501;34;20111;-62
2022/06/04 10:56:25;;;;;;;9.95;6.90;;;;;;;;;;4191394;34;20118;-63
2022/06/04 10:59:02;;;;;;;17.17;10.55;;;;;;;;;;4178517;34;20114;-62
2022/06/04 11:01:36;;;;;;;8.15;6.47;;;;;;;;;;4191422;34;20102;-62
2022/06/04 11:04:26;;;;;;;6.12;4.87;;;;;;;;;;4166961;34;20159;-60
2022/06/04 11:07:00;;;;;;;7.82;4.45;;;;;;;;;;4191720;34;20102;-62
2022/06/04 11:09:35;;;;;;;9.00;5.10;;;;;;;;;;4191237;34;20619;-62
2022/06/04 11:12:03;;;;;;;;;;;;;;;;;;4178885;34;20122;-63
2022/06/04 11:14:44;;;;;;;8.95;4.60;;;;;;;;;;4167098;34;19969;-62
2022/06/04 11:17:22;;;;;;;4.40;3.87;;;;;;;;;;4191196;34;20141;-63
2022/06/04 11:20:03;;;;;;;5.57;3.67;;;;;;;;;;4178712;34;20100;-61
2022/06/04 11:22:37;;;;;;;7.55;3.45;;;;;;;;;;4178359;34;20526;-62
2022/06/04 11:25:24;;;;;;;7.47;3.47;;;;;;;;;;4178639;34;20551;-62
2022/06/04 11:27:55;;;;;;;3.92;3.53;;;;;;;;;;4191252;34;20225;-62
2022/06/04 11:30:33;;;;;;;20.62;4.45;;;;;;;;;;4190777;34;20128;-62
2022/06/04 11:33:13;;;;;;;7.00;4.00;;;;;;;;;;4178638;34;20551;-62
2022/06/04 11:35:51;;;;;;;10.68;4.30;;;;;;;;;;4191144;34;20130;-61
2022/06/04 11:38:49;;;;;;;6.18;4.12;;;;;;;;;;4191289;34;20094;-63
2022/06/04 11:41:31;;;;;;;6.93;3.50;;;;;;;;;;4178500;34;20133;-63
2022/06/04 11:44:29;;;;;;;8.80;4.07;;;;;;;;;;4190994;34;20108;-63
2022/06/04 11:47:42;;;;;;;11.18;4.45;;;;;;;;;;4189672;34;20106;-64
2022/06/04 11:50:13;;;;;;;6.00;4.20;;;;;;;;;;4169145;34;20506;-62
2022/06/04 11:52:54;;;;;;;8.88;4.03;;;;;;;;;;4190960;34;20645;-63
2022/06/04 11:55:27;;;;;;;12.85;7.18;;;;;;;;;;4190936;34;20094;-61
2022/06/04 11:58:22;;;;;;;15.95;8.13;;;;;;;;;;4191015;34;20113;-61
2022/06/04 12:00:49;;;;;;;8.38;5.25;;;;;;;;;;4178179;34;20178;-62
2022/06/04 12:03:25;;;;;;;5.95;4.50;;;;;;;;;;4191057;34;20189;-62
2022/06/04 12:06:00;;;;;;;4.78;4.10;;;;;;;;;;4190988;34;20121;-61
2022/06/04 12:08:29;;;;;;;7.12;5.05;;;;;;;;;;4190844;34;20114;-62
2022/06/04 12:11:06;;;;;;;6.18;3.87;;;;;;;;;;4177999;34;20553;-62
2022/06/04 12:13:35;;;;;;;9.05;3.50;;;;;;;;;;4190891;34;20114;-61
2022/06/04 12:16:06;;;;;;;4.60;3.90;;;;;;;;;;4177846;34;20194;-60
2022/06/04 12:18:55;;;;;;;5.60;4.15;;;;;;;;;;4177738;34;20214;-60
2022/06/04 12:24:30;;;;;;;9.02;3.95;;;;;;;;;;4190757;34;20125;-61
2022/06/04 12:27:25;;;;;;;7.47;4.53;;;;;;;;;;4190791;34;20090;-61
2022/06/04 12:29:56;;;;;;;4.93;4.10;;;;;;;;;;4177580;34;20466;-60
2022/06/04 12:32:22;;;;;;;7.18;4.20;;;;;;;;;;4190499;34;20173;-63
2022/06/04 12:34:50;;;;;;;4.90;4.20;;;;;;;;;;4190597;34;20228;-61
2022/06/04 12:37:31;;;;;;;6.28;4.10;;;;;;;;;;4177677;34;20212;-61
2022/06/04 12:40:00;;;;;;;10.63;4.62;;;;;;;;;;4177731;34;20205;-60
2022/06/04 12:42:27;;;;;;;6.95;4.18;;;;;;;;;;4177100;34;20106;-63
2022/06/04 12:45:05;;;;;;;8.57;4.72;;;;;;;;;;4190749;34;20172;-60
2022/06/04 12:47:36;;;;;;;9.93;5.07;;;;;;;;;;4190597;34;20180;-62
2022/06/04 12:50:18;;;;;;;10.10;5.10;;;;;;;;;;4190547;34;20120;-62
2022/06/04 12:53:06;;;;;;;5.10;4.00;;;;;;;;;;4190936;34;20204;-62
2022/06/04 12:55:44;;;;;;;10.57;4.18;;;;;;;;;;4190561;34;20086;-62
2022/06/04 12:58:33;;;;;;;8.80;4.40;;;;;;;;;;4188972;34;20121;-61
2022/06/04 13:01:08;;;;;;;8.15;4.32;;;;;;;;;;4190670;34;20137;-61
2022/06/04 13:03:36;;;;;;;8.40;4.70;;;;;;;;;;4177718;34;20102;-61
2022/06/04 13:06:15;;;;;;;6.60;4.45;;;;;;;;;;4188775;34;20113;-60
2022/06/04 13:08:51;;;;;;;12.68;5.57;;;;;;;;;;4175600;34;20126;-60
2022/06/04 13:11:45;;;;;;;10.15;5.72;;;;;;;;;;4189410;34;20198;-62
2022/06/04 13:14:40;;;;;;;8.82;5.10;;;;;;;;;;4175362;34;20531;-60
2022/06/04 13:17:16;;;;;;;11.98;4.87;;;;;;;;;;4175492;34;20127;-61
2022/06/04 13:20:06;;;;;;;6.00;4.93;;;;;;;;;;4175706;34;20527;-61
2022/06/04 13:22:50;;;;;;;5.75;4.95;;;;;;;;;;4177514;34;20629;-65
2022/06/04 13:25:20;;;;;;;12.55;4.97;;;;;;;;;;4178190;34;20571;-63
2022/06/04 13:27:51;;;;;;;8.90;4.65;;;;;;;;;;4190195;34;20122;-62
2022/06/04 13:30:24;;;;;;;8.80;4.55;;;;;;;;;;4190027;34;20114;-61
2022/06/04 13:32:50;;;;;;;9.85;4.30;;;;;;;;;;4189927;34;20343;-63
2022/06/04 13:35:20;;;;;;;7.25;4.80;;;;;;;;;;4190034;34;20148;-62
2022/06/04 13:37:46;;;;;;;11.30;5.35;;;;;;;;;;4190098;34;20122;-63
2022/06/04 13:40:19;;;;;;;7.90;4.50;;;;;;;;;;4177467;34;20098;-62
2022/06/04 13:42:47;;;;;;;5.15;4.43;;;;;;;;;;4177340;34;20475;-62
2022/06/04 13:45:27;;;;;;;6.70;5.60;;;;;;;;;;4165900;34;20100;-62
2022/06/04 13:47:58;;;;;;;6.40;4.60;;;;;;;;;;4190080;34;20106;-62
2022/06/04 13:50:28;;;;;;;6.72;4.72;;;;;;;;;;4189781;34;20467;-62
2022/06/04 13:52:58;;;;;;;6.62;4.20;;;;;;;;;;4189914;34;20121;-62
2022/06/04 13:55:26;;;;;;;6.12;4.12;;;;;;;;;;4178936;34;20189;-62
2022/06/04 13:57:53;;;;;;;7.70;4.70;;;;;;;;;;4179290;34;20629;-62
2022/06/04 14:00:23;;;;;;;6.47;4.30;;;;;;;;;;4192047;34;20088;-61
2022/06/04 14:02:52;;;;;;;6.93;3.95;;;;;;;;;;4179265;34;20117;-62
2022/06/04 14:08:20;;;;;;;5.37;4.32;;;;;;;;;;4181126;34;20221;-63
2022/06/04 14:11:23;;;;;;;10.45;4.53;;;;;;;;;;4179103;34;20193;-63
2022/06/04 14:14:09;;;;;;;6.12;4.65;;;;;;;;;;4191912;34;20470;-62
2022/06/04 14:16:53;;;;;;;;;;;;;;;;;;4192170;34;20102;-61
2022/06/04 14:19:46;;;;;;;4.95;4.28;;;;;;;;;;4191909;34;19981;-63
2022/06/04 14:22:19;;;;;;;6.18;3.70;;;;;;;;;;4191854;34;20126;-63
2022/06/04 14:24:48;;;;;;;8.25;4.60;;;;;;;;;;4179186;34;20435;-63
2022/06/04 14:27:24;;;;;;;4.87;3.92;;;;;;;;;;4192079;34;20140;-63
2022/06/04 14:30:15;;;;;;;5.75;4.15;;;;;;;;;;4178894;34;20114;-63
2022/06/04 14:32:52;;;;;;;8.40;4.32;;;;;;;;;;4178857;34;20143;-63
2022/06/04 14:35:36;;;;;;;5.65;4.62;;;;;;;;;;4178742;34;20538;-63
2022/06/04 14:38:11;;;;;;;5.80;4.32;;;;;;;;;;4191680;34;20129;-64
2022/06/04 14:40:41;;;;;;;6.07;4.35;;;;;;;;;;4167462;34;20129;-64
2022/06/04 14:43:44;;;;;;;5.70;3.92;;;;;;;;;;4178717;34;20105;-64
2022/06/04 14:46:22;;;;;;;8.35;3.97;;;;;;;;;;4191778;34;20116;-60
2022/06/04 14:49:09;;;;;;;4.28;3.80;;;;;;;;;;4191636;34;20109;-62
2022/06/04 14:52:00;;;;;;;13.27;4.30;;;;;;;;;;4191780;34;20122;-62
2022/06/04 14:54:27;;;;;;;10.77;4.87;;;;;;;;;;4178872;34;20439;-62
2022/06/04 14:57:16;;;;;;;7.50;3.95;;;;;;;;;;4191344;34;20435;-62
2022/06/04 15:02:43;;;;;;;5.82;3.92;;;;;;;;;;4178640;34;20559;-63
2022/06/04 15:05:34;;;;;;;4.80;4.00;;;;;;;;;;4190742;34;20133;-61
2022/06/04 15:08:09;;;;;;;7.37;3.42;;;;;;;;;;4191675;34;20126;-62
2022/06/04 15:10:46;;;;;;;6.72;3.87;;;;;;;;;;4178831;34;20098;-63
2022/06/04 15:13:21;;;;;;;10.10;6.05;;;;;;;;;;4178517;34;20133;-63
2022/06/04 15:15:59;;;;;;;4.68;3.92;;;;;;;;;;4178614;34;20114;-63
2022/06/04 15:18:45;;;;;;;8.10;4.12;;;;;;;;;;4191341;34;20106;-63
2022/06/04 15:21:30;;;;;;;7.22;4.05;;;;;;;;;;4178606;34;20118;-60
2022/06/04 15:24:05;;;;;;;5.37;3.60;;;;;;;;;;4191376;34;20090;-61
2022/06/04 15:26:39;;;;;;;6.12;4.53;;;;;;;;;;4178517;34;20114;-62
2022/06/04 15:34:52;;;;;;;14.50;4.12;;;;;;;;;;4191149;34;20431;-60
2022/06/04 15:37:41;;;;;;;5.37;4.10;;;;;;;;;;4178435;34;20109;-60
2022/06/04 15:40:19;;;;;;;8.27;5.43;;;;;;;;;;4191256;34;20482;-61
2022/06/04 15:43:02;;;;;;;7.68;3.97;;;;;;;;;;4191039;34;20525;-62
2022/06/04 15:45:31;;;;;;;5.22;3.92;;;;;;;;;;4178205;34;20291;-59
2022/06/04 15:48:03;;;;;;;4.80;4.18;;;;;;;;;;4191533;34;20205;-59
2022/06/04 15:56:22;;;;;;;6.07;4.00;;;;;;;;;;4180074;34;20116;-62
2022/06/04 15:58:50;;;;;;;8.13;4.50;;;;;;;;;;4191235;34;20105;-60
2022/06/04 16:01:25;;;;;;;7.25;4.40;;;;;;;;;;4191160;34;20117;-61
2022/06/04 16:04:01;;;;;;;5.18;4.12;;;;;;;;;;4191119;34;20217;-61
2022/06/04 16:06:30;;;;;;;5.03;4.12;;;;;;;;;;4191080;34;20140;-61
2022/06/04 16:09:01;;;;;;;6.50;4.50;;;;;;;;;;4178358;34;20102;-63